Terminal Aerodrome Forecast
Issued by NWS Milwaukee/Sullivan, WI

Home | Current Version | Previous Version | Text Only | Print | Product List | Glossary On
Versions: 1 2 3 4 5 6 7 8 9 10 11 12 13 14 15 16 17 18 19 20 21 22 23 24 25 26 27 28 29 30 31 32 33 34 35 36 37 38 39 40 41 42 43 44 45 46 47 48 49 50
000
FTUS43 KMKX 220337 AAB
TAFMKE
TAF AMD
KMKE 220337Z 2204/2306 14003KT 6SM BR SCT006 BKN100
     FM220500 15004KT 5SM BR BKN006
     FM221000 19004KT 3SM BR BKN004
     FM221200 21004KT 2SM BR BKN006
     FM221400 21004KT P6SM BKN025
     FM221600 18005KT P6SM SCT035 BKN250
     FM221800 10006KT P6SM FEW035 BKN250
     FM230500 04004KT P6SM BKN003=

USA.gov is the U.S. government's official web portal to all federal, state and local government web resources and services.